createdAt,value
2022-11-07T00:01:54.433Z,17.57
2022-11-07T00:04:30.150Z,20.07
2022-11-07T00:07:24.446Z,19.03
2022-11-07T00:09:51.494Z,18.77
2022-11-07T00:12:37.478Z,16.67
2022-11-07T00:15:06.412Z,23.03
2022-11-07T00:17:48.636Z,21.30
2022-11-07T00:20:23.840Z,19.17
2022-11-07T00:22:51.026Z,18.97
2022-11-07T00:25:18.523Z,16.67
2022-11-07T00:27:46.085Z,18.80
2022-11-07T00:30:13.809Z,17.10
2022-11-07T00:32:40.752Z,17.83
2022-11-07T00:35:08.498Z,16.87
2022-11-07T00:37:35.428Z,16.57
2022-11-07T00:40:02.934Z,17.83
2022-11-07T00:42:32.646Z,19.83
2022-11-07T00:44:59.806Z,18.53
2022-11-07T00:47:30.352Z,18.17
2022-11-07T00:49:57.595Z,18.97
2022-11-07T00:52:51.040Z,16.03
2022-11-07T00:55:18.369Z,19.13
2022-11-07T00:57:45.628Z,20.23
2022-11-07T01:00:13.403Z,20.60
2022-11-07T01:02:43.063Z,20.13
2022-11-07T01:05:15.980Z,18.87
2022-11-07T01:07:46.902Z,19.90
2022-11-07T01:10:22.488Z,19.07
2022-11-07T01:12:50.074Z,18.30
2022-11-07T01:15:17.146Z,19.40
2022-11-07T01:17:44.294Z,17.13
2022-11-07T01:20:12.585Z,17.87
2022-11-07T01:22:39.818Z,18.20
2022-11-07T01:25:17.431Z,18.70
2022-11-07T01:27:44.581Z,19.27
2022-11-07T01:30:12.043Z,17.93
2022-11-07T01:32:39.596Z,17.90
2022-11-07T01:35:07.775Z,18.97
2022-11-07T01:37:34.723Z,17.10
2022-11-07T01:40:05.211Z,18.67
2022-11-07T01:42:46.370Z,19.10
2022-11-07T01:45:39.558Z,16.87
2022-11-07T01:48:06.786Z,18.03
2022-11-07T01:50:33.960Z,19.23
2022-11-07T01:53:01.044Z,19.77
2022-11-07T01:55:36.998Z,17.00
2022-11-07T01:58:10.484Z,19.97
2022-11-07T02:00:38.020Z,19.73
2022-11-07T02:03:23.339Z,17.87
2022-11-07T02:06:01.699Z,16.90
2022-11-07T02:08:32.900Z,17.27
2022-11-07T02:11:02.739Z,19.00
2022-11-07T02:13:34.433Z,16.47
2022-11-07T02:16:04.959Z,17.27
2022-11-07T02:18:37.388Z,17.80
2022-11-07T02:21:46.016Z,18.83
2022-11-07T02:24:28.758Z,21.40
2022-11-07T02:27:03.877Z,17.83
2022-11-07T02:29:32.513Z,19.67
2022-11-07T02:32:10.117Z,16.60
2022-11-07T02:34:37.753Z,17.00
2022-11-07T02:37:26.327Z,18.10
2022-11-07T02:39:54.045Z,18.17
2022-11-07T02:42:21.950Z,16.57
2022-11-07T02:44:49.357Z,17.40
2022-11-07T02:47:26.007Z,18.07
2022-11-07T02:49:53.180Z,16.80
2022-11-07T02:52:41.020Z,16.30
2022-11-07T02:55:15.578Z,20.77
2022-11-07T02:57:53.076Z,15.37
2022-11-07T03:00:28.174Z,17.07
2022-11-07T03:03:28.775Z,17.13
2022-11-07T03:06:10.557Z,15.60
2022-11-07T03:08:41.896Z,17.90
2022-11-07T03:11:16.118Z,17.00
2022-11-07T03:13:51.169Z,15.77
2022-11-07T03:16:21.286Z,15.17
2022-11-07T03:18:48.593Z,18.40
2022-11-07T03:21:22.339Z,15.47
2022-11-07T03:23:57.289Z,15.30
2022-11-07T03:26:27.390Z,12.83
2022-11-07T03:28:54.444Z,14.07
2022-11-07T03:31:21.783Z,14.57
2022-11-07T03:33:54.705Z,13.70
2022-11-07T03:36:24.808Z,13.77
2022-11-07T03:38:51.857Z,15.63
2022-11-07T03:41:19.102Z,14.33
2022-11-07T03:43:46.944Z,14.70
2022-11-07T03:46:16.057Z,15.20
2022-11-07T03:49:02.237Z,16.17
2022-11-07T03:51:32.377Z,12.50
2022-11-07T03:54:03.557Z,15.30
2022-11-07T03:56:33.817Z,15.40
2022-11-07T03:59:00.720Z,14.63
2022-11-07T04:01:30.599Z,13.43
2022-11-07T04:03:57.987Z,12.13
2022-11-07T04:06:25.261Z,12.20
2022-11-07T04:08:52.717Z,11.70
2022-11-07T04:11:38.441Z,13.00
2022-11-07T04:14:23.857Z,14.10
2022-11-07T04:17:09.648Z,11.23
2022-11-07T04:19:36.699Z,11.77
2022-11-07T04:22:04.259Z,16.33
2022-11-07T04:24:31.354Z,12.57
2022-11-07T04:27:19.822Z,11.53
2022-11-07T04:29:53.769Z,11.00
2022-11-07T04:32:22.430Z,10.77
2022-11-07T04:34:50.417Z,11.83
2022-11-07T04:37:19.338Z,10.17
2022-11-07T04:39:52.691Z,10.90
2022-11-07T04:42:20.392Z,9.53
2022-11-07T04:44:47.499Z,9.80
2022-11-07T04:47:22.572Z,9.27
2022-11-07T04:49:49.551Z,9.97
2022-11-07T04:55:32.526Z,11.37
2022-11-07T04:57:59.557Z,10.07
2022-11-07T05:00:26.549Z,9.93
2022-11-07T05:02:53.582Z,11.93
2022-11-07T05:05:21.176Z,11.77
2022-11-07T05:07:48.321Z,11.43
2022-11-07T05:10:26.955Z,8.93
2022-11-07T05:12:56.157Z,8.63
2022-11-07T05:15:24.211Z,10.47
2022-11-07T05:17:51.232Z,9.10
2022-11-07T05:20:34.910Z,9.13
2022-11-07T05:23:13.754Z,9.87
2022-11-07T05:25:43.837Z,7.33
2022-11-07T05:28:14.172Z,8.07
2022-11-07T05:30:45.488Z,9.67
2022-11-07T05:33:16.614Z,8.83
2022-11-07T05:35:45.498Z,10.07
2022-11-07T05:38:13.326Z,7.47
2022-11-07T05:40:44.696Z,7.47
2022-11-07T05:43:28.882Z,7.00
2022-11-07T05:46:02.194Z,9.27
2022-11-07T05:48:30.524Z,7.27
2022-11-07T05:50:58.750Z,7.73
2022-11-07T05:53:27.887Z,8.47
2022-11-07T05:55:55.838Z,16.17
2022-11-07T05:58:23.642Z,6.47
2022-11-07T06:00:54.354Z,7.77
2022-11-07T06:03:21.810Z,10.57
2022-11-07T06:05:48.940Z,7.00
2022-11-07T06:08:15.952Z,12.87
2022-11-07T06:10:57.316Z,8.77
2022-11-07T06:13:24.339Z,8.43
2022-11-07T06:15:51.459Z,8.77
2022-11-07T06:18:21.475Z,9.43
2022-11-07T06:20:48.700Z,8.93
2022-11-07T06:23:18.424Z,7.73
2022-11-07T06:25:58.630Z,14.93
2022-11-07T06:28:26.473Z,7.20
2022-11-07T06:31:29.170Z,8.80
2022-11-07T06:34:01.502Z,10.40
2022-11-07T06:36:29.236Z,9.47
2022-11-07T06:38:59.742Z,8.60
2022-11-07T06:41:29.411Z,7.50
2022-11-07T06:44:26.592Z,6.50
2022-11-07T06:46:53.765Z,7.80
2022-11-07T06:49:21.294Z,7.30
2022-11-07T06:51:48.273Z,8.83
2022-11-07T06:54:15.322Z,6.30
2022-11-07T06:56:42.733Z,5.53
2022-11-07T06:59:09.832Z,7.83
2022-11-07T07:01:40.084Z,10.57
2022-11-07T07:04:11.167Z,5.97
2022-11-07T07:06:41.549Z,9.20
2022-11-07T07:09:13.719Z,37.70
2022-11-07T07:11:42.780Z,6.40
2022-11-07T07:14:11.759Z,6.13
2022-11-07T07:16:41.942Z,10.13
2022-11-07T07:19:08.886Z,11.90
2022-11-07T07:21:38.328Z,10.30
2022-11-07T07:24:06.058Z,7.97
2022-11-07T07:26:36.352Z,7.27
2022-11-07T07:29:03.380Z,6.77
2022-11-07T07:31:47.838Z,9.73
2022-11-07T07:34:14.777Z,5.90
2022-11-07T07:36:42.043Z,6.10
2022-11-07T07:39:09.348Z,7.23
2022-11-07T07:41:40.017Z,6.33
2022-11-07T07:44:07.340Z,5.20
2022-11-07T07:46:34.286Z,7.20
2022-11-07T07:49:01.346Z,5.80
2022-11-07T07:51:28.256Z,7.27
2022-11-07T07:53:55.227Z,10.33
2022-11-07T07:56:22.193Z,5.23
2022-11-07T07:58:49.135Z,5.17
2022-11-07T08:01:16.277Z,5.77
2022-11-07T08:04:00.611Z,6.83
2022-11-07T08:06:30.875Z,5.13
2022-11-07T08:08:58.017Z,7.03
2022-11-07T08:11:25.045Z,7.10
2022-11-07T08:13:52.013Z,14.60
2022-11-07T08:16:26.179Z,4.53
2022-11-07T08:18:53.176Z,5.17
2022-11-07T08:21:20.144Z,6.60
2022-11-07T08:23:53.409Z,7.07
2022-11-07T08:26:22.851Z,5.50
2022-11-07T08:28:49.836Z,6.47
2022-11-07T08:31:17.210Z,6.00
2022-11-07T08:33:44.195Z,6.07
2022-11-07T08:36:11.179Z,4.90
2022-11-07T08:38:38.274Z,3.40
2022-11-07T08:41:05.584Z,4.57
2022-11-07T08:43:32.675Z,4.70
2022-11-07T08:45:59.703Z,5.20
2022-11-07T08:48:26.670Z,4.47
2022-11-07T08:50:56.845Z,2.53
2022-11-07T08:53:26.707Z,2.70
2022-11-07T08:56:04.646Z,3.33
2022-11-07T08:58:32.116Z,5.87
2022-11-07T09:01:00.150Z,4.23
2022-11-07T09:03:47.428Z,2.20
2022-11-07T09:06:16.613Z,6.43
2022-11-07T09:08:44.708Z,6.80
2022-11-07T09:11:15.482Z,3.17
2022-11-07T09:13:42.576Z,2.90
2022-11-07T09:16:11.750Z,4.93
2022-11-07T09:18:38.930Z,4.13
2022-11-07T09:21:06.092Z,8.03
2022-11-07T09:23:33.040Z,7.20
2022-11-07T09:26:01.031Z,9.97
2022-11-07T09:28:28.604Z,6.07
2022-11-07T09:30:57.731Z,8.87
2022-11-07T09:33:25.675Z,2.90
2022-11-07T09:35:53.022Z,7.73
2022-11-07T09:38:20.191Z,5.70
2022-11-07T09:40:58.953Z,13.53
2022-11-07T09:43:47.728Z,6.40
2022-11-07T09:47:03.226Z,4.60
2022-11-07T09:49:47.135Z,4.00
2022-11-07T09:52:43.551Z,5.60
2022-11-07T09:55:20.823Z,5.63
2022-11-07T09:57:49.181Z,4.53
2022-11-07T10:00:23.834Z,4.00
2022-11-07T10:02:56.472Z,4.67
2022-11-07T10:06:05.538Z,3.70
2022-11-07T10:09:15.030Z,4.93
2022-11-07T10:12:44.473Z,4.90
2022-11-07T10:15:40.274Z,6.27
2022-11-07T10:18:45.662Z,7.83
2022-11-07T10:21:58.353Z,2.73
2022-11-07T10:25:54.979Z,3.43
2022-11-07T10:28:26.192Z,2.20
2022-11-07T10:30:58.198Z,5.13
2022-11-07T10:34:14.506Z,5.87
2022-11-07T10:36:41.680Z,2.03
2022-11-07T10:39:19.273Z,9.43
2022-11-07T10:42:13.959Z,4.80
2022-11-07T10:44:46.943Z,3.93
2022-11-07T10:47:26.116Z,2.83
2022-11-07T10:50:00.181Z,2.97
2022-11-07T10:52:37.408Z,5.60
2022-11-07T10:55:16.890Z,3.40
2022-11-07T10:58:28.169Z,3.07
2022-11-07T11:01:10.219Z,3.50
2022-11-07T11:03:44.701Z,7.13
2022-11-07T11:06:18.772Z,3.83
2022-11-07T11:08:52.789Z,2.50
2022-11-07T11:11:34.850Z,13.43
2022-11-07T11:14:30.305Z,7.57
2022-11-07T11:16:57.721Z,4.13
2022-11-07T11:19:52.583Z,5.80
2022-11-07T11:22:31.941Z,3.20
2022-11-07T11:25:21.697Z,3.77
2022-11-07T11:28:05.041Z,4.37
2022-11-07T11:30:35.858Z,5.50
2022-11-07T11:33:27.054Z,5.23
2022-11-07T11:36:04.357Z,5.37
2022-11-07T11:38:39.362Z,3.50
2022-11-07T11:41:51.631Z,4.87
2022-11-07T11:44:38.179Z,4.77
2022-11-07T11:47:38.177Z,3.50
2022-11-07T11:50:22.431Z,3.97
2022-11-07T11:52:52.631Z,7.83
2022-11-07T11:55:22.469Z,5.00
2022-11-07T11:58:02.185Z,6.37
2022-11-07T12:00:36.670Z,3.37
2022-11-07T12:03:27.587Z,2.47
2022-11-07T12:06:19.544Z,5.30
2022-11-07T12:09:33.147Z,4.97
2022-11-07T12:12:38.180Z,4.20
2022-11-07T12:15:32.960Z,6.43
2022-11-07T12:18:28.629Z,2.60
2022-11-07T12:21:31.736Z,2.80
2022-11-07T12:25:11.792Z,7.07
2022-11-07T12:28:16.672Z,4.50
2022-11-07T12:31:29.697Z,3.10
2022-11-07T12:34:57.313Z,3.30
2022-11-07T12:37:45.041Z,2.23
2022-11-07T12:41:02.679Z,4.20
2022-11-07T12:44:06.557Z,4.50
2022-11-07T12:46:56.358Z,2.50
2022-11-07T12:49:45.225Z,3.20
2022-11-07T12:53:09.974Z,2.40
2022-11-07T12:55:52.457Z,4.50
2022-11-07T12:58:37.456Z,5.03
2022-11-07T13:01:11.367Z,6.43
2022-11-07T13:04:35.505Z,4.63
2022-11-07T13:07:40.159Z,9.03
2022-11-07T13:11:26.374Z,7.50
2022-11-07T13:14:38.765Z,5.00
2022-11-07T13:17:27.907Z,9.03
2022-11-07T13:20:34.508Z,3.20
2022-11-07T13:23:16.461Z,8.20
2022-11-07T13:25:46.899Z,4.20
2022-11-07T13:28:40.692Z,3.57
2022-11-07T13:31:40.432Z,5.77
2022-11-07T13:34:19.496Z,8.30
2022-11-07T13:36:56.869Z,27.13
2022-11-07T13:39:24.757Z,6.07
2022-11-07T13:42:00.992Z,4.50
2022-11-07T13:44:37.389Z,4.30
2022-11-07T13:47:16.929Z,5.37
2022-11-07T13:53:00.335Z,16.03
2022-11-07T13:56:19.509Z,10.27
2022-11-07T13:58:49.804Z,11.07
2022-11-07T14:01:23.133Z,7.60
2022-11-07T14:03:53.940Z,7.53
2022-11-07T14:06:21.500Z,10.20
2022-11-07T14:08:53.557Z,13.87
2022-11-07T14:11:23.583Z,13.77
2022-11-07T14:16:35.537Z,11.53
2022-11-07T14:19:17.946Z,8.73
2022-11-07T14:21:47.724Z,4.90
2022-11-07T14:24:28.750Z,3.43
2022-11-07T14:27:14.997Z,13.53
2022-11-07T14:30:03.166Z,4.93
2022-11-07T14:32:32.106Z,5.97
2022-11-07T14:35:08.863Z,8.80
2022-11-07T14:37:36.832Z,4.60
2022-11-07T14:40:07.862Z,7.00
2022-11-07T14:42:35.007Z,8.57
2022-11-07T14:45:04.223Z,8.60
2022-11-07T14:47:35.160Z,7.07
2022-11-07T14:50:04.739Z,8.27
2022-11-07T14:52:57.693Z,6.37
2022-11-07T14:55:50.422Z,5.03
2022-11-07T14:58:24.048Z,4.77
2022-11-07T15:00:58.855Z,8.60
2022-11-07T15:03:36.697Z,6.57
2022-11-07T15:06:04.845Z,7.60
2022-11-07T15:08:37.462Z,6.67
2022-11-07T15:11:30.433Z,9.47
2022-11-07T15:14:00.952Z,5.53
2022-11-07T15:16:39.239Z,6.87
2022-11-07T15:19:08.801Z,6.97
2022-11-07T15:21:39.586Z,8.43
2022-11-07T15:24:32.169Z,9.03
2022-11-07T15:27:40.299Z,6.27
2022-11-07T15:30:33.913Z,5.57
2022-11-07T15:33:01.022Z,4.43
2022-11-07T15:35:44.843Z,3.73
2022-11-07T15:38:25.106Z,10.13
2022-11-07T15:40:52.841Z,5.50
2022-11-07T15:43:20.831Z,11.13
2022-11-07T15:45:50.925Z,5.10
2022-11-07T15:48:26.472Z,6.80
2022-11-07T15:50:53.392Z,3.50
2022-11-07T15:53:31.474Z,5.53
2022-11-07T15:56:01.274Z,13.47
2022-11-07T15:58:30.074Z,9.73
2022-11-07T16:00:58.819Z,7.83
2022-11-07T16:03:28.010Z,8.57
2022-11-07T16:06:01.495Z,12.17
2022-11-07T16:08:30.446Z,7.77
2022-11-07T16:11:01.159Z,6.30
2022-11-07T16:13:28.912Z,7.97
2022-11-07T16:16:01.974Z,4.50
2022-11-07T16:18:39.681Z,9.53
2022-11-07T16:21:07.406Z,4.17
2022-11-07T16:23:34.376Z,6.37
2022-11-07T16:26:01.506Z,5.97
2022-11-07T16:28:35.186Z,5.97
2022-11-07T16:31:02.833Z,8.80
2022-11-07T16:33:30.561Z,9.60
2022-11-07T16:36:01.714Z,5.87
2022-11-07T16:38:36.563Z,5.70
2022-11-07T16:41:03.602Z,5.90
2022-11-07T16:43:35.039Z,7.20
2022-11-07T16:46:02.221Z,13.67
2022-11-07T16:48:30.480Z,7.20
2022-11-07T16:50:58.424Z,6.50
2022-11-07T16:53:26.149Z,3.90
2022-11-07T16:56:01.129Z,2.80
2022-11-07T16:58:34.216Z,5.80
2022-11-07T17:01:06.100Z,6.63
2022-11-07T17:03:33.877Z,2.87
2022-11-07T17:06:03.866Z,3.80
2022-11-07T17:08:41.097Z,6.97
2022-11-07T17:11:12.470Z,3.30
2022-11-07T17:13:39.504Z,5.27
2022-11-07T17:16:29.919Z,8.00
2022-11-07T17:19:10.575Z,7.37
2022-11-07T17:21:40.721Z,4.40
2022-11-07T17:24:15.591Z,7.60
2022-11-07T17:26:47.759Z,4.17
2022-11-07T17:29:14.924Z,6.03
2022-11-07T17:31:43.203Z,5.57
2022-11-07T17:34:10.872Z,5.23
2022-11-07T17:36:46.058Z,6.03
2022-11-07T17:39:20.745Z,4.87
2022-11-07T17:41:50.680Z,5.07
2022-11-07T17:44:18.762Z,4.33
2022-11-07T17:46:50.225Z,6.00
2022-11-07T17:49:21.851Z,8.17
2022-11-07T17:51:48.871Z,7.80
2022-11-07T17:54:18.566Z,6.73
2022-11-07T17:56:45.579Z,5.93
2022-11-07T17:59:16.805Z,8.20
2022-11-07T18:01:46.905Z,6.97
2022-11-07T18:04:16.512Z,4.87
2022-11-07T18:06:43.755Z,5.13
2022-11-07T18:09:16.540Z,3.10
2022-11-07T18:11:44.532Z,5.13
2022-11-07T18:14:14.260Z,4.83
2022-11-07T18:16:41.520Z,5.80
2022-11-07T18:19:09.670Z,6.10
2022-11-07T18:21:36.643Z,6.10
2022-11-07T18:24:03.840Z,6.97
2022-11-07T18:26:33.969Z,4.97
2022-11-07T18:29:09.112Z,5.97
2022-11-07T18:31:43.611Z,5.77
2022-11-07T18:34:20.534Z,5.27
2022-11-07T18:36:47.867Z,5.23
2022-11-07T18:39:21.974Z,7.13
2022-11-07T18:41:50.836Z,6.33
2022-11-07T18:44:19.218Z,3.77
2022-11-07T18:46:47.304Z,8.57
2022-11-07T18:49:15.882Z,4.53
2022-11-07T18:51:43.845Z,4.43
2022-11-07T18:54:13.664Z,7.90
2022-11-07T18:56:42.390Z,4.70
2022-11-07T18:59:10.205Z,4.53
2022-11-07T19:01:37.294Z,9.77
2022-11-07T19:04:05.798Z,6.10
2022-11-07T19:06:33.510Z,7.07
2022-11-07T19:09:01.196Z,3.67
2022-11-07T19:11:31.371Z,7.73
2022-11-07T19:14:02.736Z,5.50
2022-11-07T19:16:30.501Z,3.70
2022-11-07T19:18:59.542Z,6.03
2022-11-07T19:21:27.153Z,6.27
2022-11-07T19:23:54.130Z,13.87
2022-11-07T19:26:21.258Z,7.87
2022-11-07T19:28:48.906Z,6.27
2022-11-07T19:31:16.599Z,5.53
2022-11-07T19:33:44.223Z,4.97
2022-11-07T19:36:17.968Z,3.80
2022-11-07T19:38:45.650Z,6.17
2022-11-07T19:41:15.307Z,11.40
2022-11-07T19:43:44.563Z,5.57
2022-11-07T19:46:20.425Z,6.93
2022-11-07T19:48:49.148Z,5.23
2022-11-07T19:51:22.239Z,4.50
2022-11-07T19:53:59.865Z,10.97
2022-11-07T19:56:31.977Z,6.67
2022-11-07T19:59:01.324Z,4.03
2022-11-07T20:01:32.661Z,5.53
2022-11-07T20:04:01.072Z,6.70
2022-11-07T20:06:35.481Z,8.00
2022-11-07T20:09:07.428Z,5.83
2022-11-07T20:11:34.685Z,10.00
2022-11-07T20:14:03.775Z,7.57
2022-11-07T20:16:36.692Z,10.03
2022-11-07T20:19:04.504Z,6.37
2022-11-07T20:21:32.324Z,7.80
2022-11-07T20:23:59.780Z,8.27
2022-11-07T20:26:30.547Z,6.93
2022-11-07T20:28:58.510Z,8.10
2022-11-07T20:31:32.869Z,7.53
2022-11-07T20:34:03.160Z,7.90
2022-11-07T20:36:31.789Z,6.00
2022-11-07T20:39:05.131Z,7.23
2022-11-07T20:41:32.375Z,7.57
2022-11-07T20:44:06.908Z,8.23
2022-11-07T20:46:38.978Z,7.57
2022-11-07T20:49:12.625Z,4.50
2022-11-07T20:51:41.155Z,3.90
2022-11-07T20:54:12.395Z,8.03
2022-11-07T20:56:39.510Z,4.57
2022-11-07T20:59:06.828Z,9.07
2022-11-07T21:01:40.997Z,6.20
2022-11-07T21:04:56.336Z,8.17
2022-11-07T21:07:31.999Z,8.77
2022-11-07T21:10:03.543Z,7.77
2022-11-07T21:12:34.625Z,6.90
2022-11-07T21:15:01.648Z,5.73
2022-11-07T21:17:28.746Z,6.53
2022-11-07T21:19:57.798Z,5.10
2022-11-07T21:22:29.141Z,13.20
2022-11-07T21:24:57.336Z,5.93
2022-11-07T21:27:24.981Z,7.87
2022-11-07T21:29:52.075Z,13.07
2022-11-07T21:32:19.277Z,7.57
2022-11-07T21:34:49.753Z,5.03
2022-11-07T21:37:19.741Z,5.23
2022-11-07T21:39:46.842Z,7.23
2022-11-07T21:42:14.150Z,7.90
2022-11-07T21:44:43.401Z,7.03
2022-11-07T21:47:10.468Z,3.77
2022-11-07T21:49:37.648Z,8.37
2022-11-07T21:52:05.588Z,4.23
2022-11-07T21:54:32.515Z,7.80
2022-11-07T21:57:04.273Z,6.37
2022-11-07T21:59:31.796Z,5.20
2022-11-07T22:01:58.905Z,8.90
2022-11-07T22:04:25.953Z,7.70
2022-11-07T22:06:53.432Z,4.43
2022-11-07T22:09:22.334Z,5.97
2022-11-07T22:11:50.404Z,8.10
2022-11-07T22:14:22.625Z,9.43
2022-11-07T22:16:51.207Z,7.23
2022-11-07T22:19:19.023Z,14.37
2022-11-07T22:21:46.024Z,5.60
2022-11-07T22:24:13.334Z,8.57
2022-11-07T22:26:40.546Z,7.67
2022-11-07T22:29:07.789Z,4.97
2022-11-07T22:31:36.231Z,10.73
2022-11-07T22:34:03.814Z,10.67
2022-11-07T22:36:30.749Z,6.60
2022-11-07T22:38:58.589Z,7.53
2022-11-07T22:41:27.876Z,6.30
2022-11-07T22:43:56.183Z,5.40
2022-11-07T22:46:30.019Z,10.40
2022-11-07T22:48:59.058Z,6.77
2022-11-07T22:51:33.665Z,6.03
2022-11-07T22:54:05.846Z,6.87
2022-11-07T22:56:35.347Z,6.50
2022-11-07T22:59:04.141Z,5.87
2022-11-07T23:01:36.355Z,6.80
2022-11-07T23:04:05.197Z,6.10
2022-11-07T23:06:32.454Z,7.13
2022-11-07T23:09:00.962Z,3.10
2022-11-07T23:11:50.807Z,11.53
2022-11-07T23:14:21.358Z,8.43
2022-11-07T23:16:55.599Z,4.43
2022-11-07T23:19:27.197Z,9.43
2022-11-07T23:21:56.562Z,8.57
2022-11-07T23:24:24.726Z,8.90
2022-11-07T23:26:51.969Z,7.33
2022-11-07T23:29:24.209Z,5.47
2022-11-07T23:31:52.957Z,5.77
2022-11-07T23:34:23.641Z,6.63
2022-11-07T23:37:03.125Z,4.37
2022-11-07T23:39:30.245Z,7.57
2022-11-07T23:41:57.212Z,10.27
2022-11-07T23:44:24.708Z,8.17
2022-11-07T23:47:10.507Z,7.80
2022-11-07T23:49:56.769Z,8.47
2022-11-07T23:52:33.316Z,5.87
2022-11-07T23:55:22.451Z,11.07
2022-11-07T23:58:08.203Z,6.30
